Time;durP1;ratioP1;P1;durP2;ratioP2;P2;SDS_P1;SDS_P2;PMS_P1;PMS_P2;Temp;Humidity;BMP_temperature;BMP_pressure;BME280_temperature;BME280_humidity;BME280_pressure;Samples;Min_cycle;Max_cycle;Signal;HPM_P1;HPM_P2
2022/04/19 00:00:37;;;;;;;1999.90;999.90;;;;;;;4.07;87.69;94392.94;5015610;28;21008;-83
2022/04/19 00:03:04;;;;;;;1999.90;999.90;;;;;;;4.03;88.12;94396.91;5015573;28;20187;-83
2022/04/19 00:05:32;;;;;;;1999.90;999.90;;;;;;;4.03;88.31;94391.72;5015748;28;20184;-83
2022/04/19 00:07:58;;;;;;;1999.90;999.90;;;;;;;3.74;87.65;94342.28;5015483;28;20177;-83
2022/04/19 00:10:28;;;;;;;1999.90;999.90;;;;;;;3.66;87.91;94330.19;5019325;28;20200;-83
2022/04/19 00:13:02;;;;;;;1999.90;999.90;;;;;;;3.87;87.46;94354.66;5009625;28;20279;-83
2022/04/19 00:15:29;;;;;;;1999.90;999.90;;;;;;;3.88;87.22;94354.47;5023971;28;20180;-83
2022/04/19 00:17:57;;;;;;;1999.90;999.90;;;;;;;3.94;87.21;94374.56;5025400;28;20184;-84
2022/04/19 00:20:24;;;;;;;1999.90;999.90;;;;;;;3.99;88.11;94374.81;5025756;28;20180;-83
2022/04/19 00:22:50;;;;;;;1999.90;999.90;;;;;;;4.01;87.71;94372.84;5027409;28;20186;-84
2022/04/19 00:25:16;;;;;;;1999.90;999.90;;;;;;;3.87;87.62;94376.28;5035220;28;20199;-83
2022/04/19 00:27:42;;;;;;;1999.90;999.90;;;;;;;3.46;88.06;94320.53;5034878;28;20313;-83
2022/04/19 00:30:08;;;;;;;1999.90;999.90;;;;;;;3.47;88.02;94322.09;5033331;28;20258;-84
2022/04/19 00:32:34;;;;;;;1999.90;999.90;;;;;;;3.67;88.49;94347.41;5021312;28;20256;-83
2022/04/19 00:35:00;;;;;;;1999.90;999.90;;;;;;;3.68;88.24;94353.41;5022729;28;20172;-82
2022/04/19 00:37:26;;;;;;;1999.90;999.90;;;;;;;3.73;88.20;94361.47;5023165;28;20184;-83
2022/04/19 00:39:52;;;;;;;1999.90;999.90;;;;;;;3.68;88.20;94359.44;5018162;28;20185;-84
2022/04/19 00:42:18;;;;;;;1999.90;999.90;;;;;;;3.67;88.86;94350.00;5014642;28;20631;-83
2022/04/19 00:44:44;;;;;;;1999.90;999.90;;;;;;;3.74;89.27;94356.09;5014690;28;20203;-82
2022/04/19 00:47:10;;;;;;;1999.90;999.90;;;;;;;3.78;88.49;94351.34;5015233;28;20187;-83
2022/04/19 00:49:43;;;;;;;1999.90;999.90;;;;;;;3.77;88.84;94362.75;5014758;28;20225;-82
2022/04/19 00:52:10;;;;;;;1999.90;999.90;;;;;;;3.79;88.57;94358.16;5014941;28;20578;-83
2022/04/19 00:54:35;;;;;;;1999.90;999.90;;;;;;;3.73;88.87;94332.84;5014673;28;20149;-82
2022/04/19 00:57:02;;;;;;;1999.90;999.90;;;;;;;3.92;88.81;94353.13;5014853;28;20219;-83
2022/04/19 00:59:27;;;;;;;1999.90;999.90;;;;;;;3.94;88.78;94342.53;5014957;28;20176;-83
2022/04/19 01:01:53;;;;;;;1999.90;999.90;;;;;;;4.01;88.69;94351.22;5014971;28;20164;-82
2022/04/19 01:04:18;;;;;;;1999.90;999.90;;;;;;;4.04;88.39;94356.06;5014708;28;20192;-82
2022/04/19 01:06:44;;;;;;;1999.90;999.90;;;;;;;3.78;88.02;94309.72;5014478;28;21045;-82
2022/04/19 01:09:10;;;;;;;1999.90;999.90;;;;;;;4.02;87.87;94342.41;5014353;28;20271;-82
2022/04/19 01:14:21;;;;;;;1999.90;999.90;;;;;;;4.07;88.61;94340.84;5017202;28;20300;-83
2022/04/19 01:16:46;;;;;;;1999.90;999.90;;;;;;;4.03;88.02;94329.22;5022229;28;20168;-83
2022/04/19 01:19:16;;;;;;;1999.90;999.90;;;;;;;4.10;87.50;94340.50;5002273;28;20207;-83
2022/04/19 01:21:54;;;;;;;1999.90;999.90;;;;;;;4.00;88.18;94326.97;5024708;28;20653;-83
2022/04/19 01:24:22;;;;;;;1999.90;999.90;;;;;;;4.10;87.82;94344.91;5021688;28;20192;-84
2022/04/19 01:26:48;;;;;;;1999.90;999.90;;;;;;;4.04;87.77;94330.84;5026550;28;20176;-83
2022/04/19 01:29:15;;;;;;;1999.90;999.90;;;;;;;4.12;87.96;94338.53;5034150;28;20164;-83
2022/04/19 01:31:42;;;;;;;1999.90;999.90;;;;;;;4.21;87.68;94338.41;5033930;28;20163;-83
2022/04/19 01:34:08;;;;;;;1999.90;999.90;;;;;;;4.21;86.97;94346.22;5016591;28;20156;-84
2022/04/19 01:36:35;;;;;;;1999.90;999.90;;;;;;;3.72;87.28;94268.78;5033641;28;20171;-84
2022/04/19 01:39:03;;;;;;;1999.90;999.90;;;;;;;3.67;87.57;94255.53;5033551;28;20160;-84
2022/04/19 01:41:28;;;;;;;1999.90;999.90;;;;;;;3.78;87.33;94270.66;5015810;28;20212;-84
2022/04/19 01:43:54;;;;;;;1999.90;999.90;;;;;;;3.51;87.60;94240.13;5033489;28;20195;-83
2022/04/19 01:46:19;;;;;;;1999.90;999.90;;;;;;;4.11;87.68;94334.31;5033576;28;20683;-83
2022/04/19 01:48:45;;;;;;;1999.90;999.90;;;;;;;4.09;87.63;94327.66;5033496;28;20172;-83
2022/04/19 01:51:12;;;;;;;1999.90;999.90;;;;;;;3.87;87.49;94293.00;5025505;28;20199;-84
2022/04/19 01:53:37;;;;;;;1999.90;999.90;;;;;;;4.09;87.29;94323.25;5022342;28;20179;-84
2022/04/19 01:56:03;;;;;;;1999.90;999.90;;;;;;;3.94;86.85;94295.66;5020795;28;20172;-84
2022/04/19 01:58:29;;;;;;;1999.90;999.90;;;;;;;4.11;86.67;94341.31;5026509;28;20183;-83
2022/04/19 02:00:54;;;;;;;1999.90;999.90;;;;;;;3.65;87.05;94280.91;5033507;28;20195;-82
2022/04/19 02:03:20;;;;;;;1999.90;999.90;;;;;;;3.94;87.80;94321.69;5033363;28;20230;-84
2022/04/19 02:05:46;;;;;;;1999.90;999.90;;;;;;;3.81;87.84;94304.13;5033950;28;20239;-84
2022/04/19 02:08:11;;;;;;;1999.90;999.90;;;;;;;3.45;87.86;94240.88;5033035;28;20171;-83
2022/04/19 02:10:37;;;;;;;1999.90;999.90;;;;;;;3.49;88.46;94244.69;5033366;28;20160;-84
2022/04/19 02:13:03;;;;;;;1999.90;999.90;;;;;;;4.07;87.53;94330.44;5015876;28;20199;-84
2022/04/19 02:15:29;;;;;;;1999.90;999.90;;;;;;;3.70;87.33;94278.59;5037526;28;20172;-84
2022/04/19 02:17:54;;;;;;;1999.90;999.90;;;;;;;3.92;87.66;94314.06;5037467;28;20684;-83
2022/04/19 02:20:20;;;;;;;1999.90;999.90;;;;;;;3.73;87.62;94286.00;5025030;28;20684;-79
2022/04/19 02:22:46;;;;;;;1999.90;999.90;;;;;;;3.74;88.05;94287.63;5026631;28;20310;-83
2022/04/19 02:25:14;;;;;;;1999.90;999.90;;;;;;;3.67;87.98;94273.75;4998257;28;20695;-88
2022/04/19 02:27:40;;;;;;;1999.90;999.90;;;;;;;4.06;88.14;94339.28;5014057;28;20180;-83
2022/04/19 02:30:13;;;;;;;1999.90;999.90;;;;;;;3.82;88.53;94279.69;5032573;28;20205;-84
2022/04/19 02:32:41;;;;;;;1999.90;999.90;;;;;;;4.04;87.93;94328.22;5032847;28;20230;-84
2022/04/19 02:35:06;;;;;;;1999.90;999.90;;;;;;;3.85;87.42;94283.75;5032804;28;20214;-85
2022/04/19 02:37:32;;;;;;;1999.90;999.90;;;;;;;4.13;87.61;94331.53;5032991;28;20164;-83
2022/04/19 02:39:58;;;;;;;1999.90;999.90;;;;;;;4.02;87.55;94326.78;5032685;28;20164;-84
2022/04/19 02:42:23;;;;;;;1999.90;999.90;;;;;;;4.13;88.11;94332.34;5032459;28;20195;-83
2022/04/19 02:44:49;;;;;;;1999.90;999.90;;;;;;;4.17;87.96;94325.75;5014615;28;20226;-84
2022/04/19 02:47:16;;;;;;;1999.90;999.90;;;;;;;3.72;87.70;94259.19;5025587;28;20653;-83
2022/04/19 02:49:42;;;;;;;1999.90;999.90;;;;;;;4.08;87.12;94334.66;5024577;28;20186;-84
2022/04/19 02:52:08;;;;;;;1999.90;999.90;;;;;;;4.02;87.07;94338.00;5022993;28;20187;-84
2022/04/19 02:54:34;;;;;;;1999.90;999.90;;;;;;;4.03;87.72;94338.81;5024314;28;20180;-84
2022/04/19 02:56:59;;;;;;;1999.90;999.90;;;;;;;4.00;87.67;94341.78;4994878;28;20207;-83
2022/04/19 02:59:25;;;;;;;1999.90;999.90;;;;;;;3.96;88.29;94338.75;4994976;28;20169;-83
2022/04/19 03:01:50;;;;;;;1999.90;999.90;;;;;;;3.89;88.44;94326.66;5012485;28;20657;-83
2022/04/19 03:04:16;;;;;;;1999.90;999.90;;;;;;;4.08;88.94;94352.91;5014476;28;20204;-83
2022/04/19 03:06:41;;;;;;;1999.90;999.90;;;;;;;4.03;88.51;94347.44;5023511;28;20271;-83
2022/04/19 03:09:07;;;;;;;1999.90;999.90;;;;;;;4.11;88.13;94355.13;5022578;28;20251;-83
2022/04/19 03:11:32;;;;;;;1999.90;999.90;;;;;;;3.98;88.45;94330.75;5019877;28;20646;-82
2022/04/19 03:13:58;;;;;;;1999.90;999.90;;;;;;;3.82;88.42;94316.16;5021430;28;20178;-83
2022/04/19 03:16:24;;;;;;;1999.90;999.90;;;;;;;4.08;88.44;94346.88;5022491;28;20187;-82
2022/04/19 03:18:49;;;;;;;1999.90;999.90;;;;;;;4.16;88.11;94359.78;5013568;28;20191;-83
2022/04/19 03:21:15;;;;;;;1999.90;999.90;;;;;;;4.15;87.77;94364.19;5012237;28;20165;-82
2022/04/19 03:29:09;;;;;;;1999.90;999.90;;;;;;;3.98;87.01;94334.16;5012216;28;20295;-82
2022/04/19 03:31:35;;;;;;;1999.90;999.90;;;;;;;4.19;87.88;94364.63;5012213;28;20262;-82
2022/04/19 03:34:05;;;;;;;1999.90;999.90;;;;;;;4.28;88.06;94362.72;5012119;28;20219;-82
2022/04/19 03:36:31;;;;;;;1999.90;999.90;;;;;;;4.33;87.97;94365.56;5012142;28;20284;-81
2022/04/19 03:38:58;;;;;;;1999.90;999.90;;;;;;;4.28;87.73;94365.34;5012354;28;20169;-82
2022/04/19 03:41:24;;;;;;;1999.90;999.90;;;;;;;4.33;87.53;94368.19;5012293;28;20244;-81
2022/04/19 03:43:51;;;;;;;1999.90;999.90;;;;;;;4.32;87.65;94369.19;5022325;28;20282;-81
2022/04/19 03:46:18;;;;;;;1999.90;999.90;;;;;;;4.35;87.80;94384.44;5019448;28;20183;-81
2022/04/19 03:48:43;;;;;;;1999.90;999.90;;;;;;;4.38;87.19;94379.69;5026378;28;20637;-80
2022/04/19 03:51:09;;;;;;;1999.90;999.90;;;;;;;4.37;87.28;94385.88;5028657;28;20184;-85
2022/04/19 03:53:34;;;;;;;1999.90;999.90;;;;;;;4.34;87.51;94385.44;5031819;28;20152;-83
2022/04/19 03:56:00;;;;;;;1999.90;999.90;;;;;;;4.34;87.08;94390.63;5023833;28;20188;-82
2022/04/19 03:58:27;;;;;;;1999.90;999.90;;;;;;;4.18;86.84;94363.03;5017262;28;20208;-83
2022/04/19 04:00:55;;;;;;;1999.90;999.90;;;;;;;4.33;86.95;94392.44;5018571;28;20567;-83
2022/04/19 04:03:21;;;;;;;1999.90;999.90;;;;;;;4.30;87.18;94392.00;5026309;28;20184;-83
2022/04/19 04:05:47;;;;;;;1999.90;999.90;;;;;;;4.33;86.99;94395.03;5018191;28;20251;-84
2022/04/19 04:08:12;;;;;;;1999.90;999.90;;;;;;;4.00;87.09;94345.19;5015853;28;20721;-84
2022/04/19 04:10:38;;;;;;;1999.90;999.90;;;;;;;4.11;86.59;94362.94;5027146;28;20211;-83
2022/04/19 04:13:04;;;;;;;1999.90;999.90;;;;;;;3.99;86.59;94340.16;5021009;28;20175;-83
2022/04/19 04:15:30;;;;;;;1999.90;999.90;;;;;;;4.36;86.93;94402.50;5020002;28;20231;-82
2022/04/19 04:17:55;;;;;;;1999.90;999.90;;;;;;;3.98;87.07;94330.75;5021241;28;20186;-83
2022/04/19 04:20:21;;;;;;;1999.90;999.90;;;;;;;4.44;87.11;94401.56;5025943;28;20258;-83
2022/04/19 04:22:46;;;;;;;1999.90;999.90;;;;;;;4.08;86.94;94329.47;5025296;28;20650;-83
2022/04/19 04:25:12;;;;;;;1999.90;999.90;;;;;;;4.54;86.98;94399.47;5019407;28;20196;-84
2022/04/19 04:27:37;;;;;;;1999.90;999.90;;;;;;;4.55;86.64;94404.50;5007988;28;20191;-84
2022/04/19 04:30:03;;;;;;;1999.90;999.90;;;;;;;4.23;86.71;94352.88;5031632;28;20176;-84
2022/04/19 04:32:29;;;;;;;1999.90;999.90;;;;;;;4.06;86.72;94341.88;5034872;28;20168;-87
2022/04/19 04:34:54;;;;;;;1999.90;999.90;;;;;;;4.45;86.79;94393.56;5035127;28;20167;-85
2022/04/19 04:37:20;;;;;;;1999.90;999.90;;;;;;;4.28;86.92;94368.75;5034791;28;20178;-86
2022/04/19 04:39:46;;;;;;;1999.90;999.90;;;;;;;4.25;87.07;94357.88;5025914;28;20196;-86
2022/04/19 04:42:11;;;;;;;1999.90;999.90;;;;;;;4.05;86.92;94327.25;5030097;28;20381;-88
2022/04/19 04:44:37;;;;;;;1999.90;999.90;;;;;;;4.18;87.27;94360.41;5005694;28;20758;-87
2022/04/19 04:49:47;;;;;;;1999.90;999.90;;;;;;;4.40;85.79;94372.50;5040827;28;20194;-88
2022/04/19 04:52:14;;;;;;;1999.90;999.90;;;;;;;4.66;86.25;94418.06;5018251;28;20323;-90
2022/04/19 04:54:41;;;;;;;1999.90;999.90;;;;;;;4.36;86.39;94368.63;5009174;28;20172;-88
2022/04/19 04:57:08;;;;;;;1999.90;999.90;;;;;;;4.69;86.60;94423.69;5029574;28;20286;-88
2022/04/19 04:59:34;;;;;;;1999.90;999.90;;;;;;;4.74;86.83;94429.16;5015416;28;20236;-88
2022/04/19 05:02:00;;;;;;;1999.90;999.90;;;;;;;4.67;87.05;94404.81;5018741;28;20177;-88
2022/04/19 05:04:26;;;;;;;1999.90;999.90;;;;;;;4.62;87.04;94390.72;5006427;28;20200;-88
2022/04/19 05:06:51;;;;;;;1999.90;999.90;;;;;;;4.78;86.29;94406.13;5005255;28;20175;-88
2022/04/19 05:09:17;;;;;;;1999.90;999.90;;;;;;;4.47;85.89;94351.72;5004052;28;20224;-86
2022/04/19 05:11:46;;;;;;;1999.90;999.90;;;;;;;4.82;85.54;94391.72;5012683;28;20218;-87
2022/04/19 05:14:12;;;;;;;15.23;13.90;;;;;;;5.15;85.84;94431.13;5035433;28;20180;-86
2022/04/19 05:16:37;;;;;;;9.77;8.50;;;;;;;4.86;85.18;94357.25;5016452;28;20203;-87
2022/04/19 05:19:03;;;;;;;8.43;5.87;;;;;;;4.88;83.97;94349.25;5016733;28;20218;-87
2022/04/19 05:21:29;;;;;;;7.43;5.53;;;;;;;5.15;83.53;94376.34;5016413;28;20179;-88
2022/04/19 05:23:55;;;;;;;6.93;5.07;;;;;;;5.40;83.37;94400.22;5016557;28;20198;-87
2022/04/19 05:26:21;;;;;;;8.33;5.10;;;;;;;5.41;82.79;94401.84;5026516;28;20666;-88
2022/04/19 05:28:47;;;;;;;11.47;5.40;;;;;;;5.35;82.74;94387.75;5001863;28;20337;-87
2022/04/19 05:31:13;;;;;;;10.60;6.40;;;;;;;5.27;82.64;94380.06;5005375;28;20176;-87
2022/04/19 05:33:38;;;;;;;6.47;3.63;;;;;;;5.21;82.82;94386.03;5015780;28;20647;-87
2022/04/19 05:36:04;;;;;;;5.67;3.70;;;;;;;5.50;83.31;94430.22;5023130;28;20190;-88
2022/04/19 05:38:30;;;;;;;6.17;4.00;;;;;;;5.28;83.04;94413.78;5027143;28;20637;-88
2022/04/19 05:40:56;;;;;;;5.83;3.20;;;;;;;5.44;82.84;94449.25;5003945;28;20200;-87
2022/04/19 05:43:22;;;;;;;6.87;3.90;;;;;;;4.95;82.68;94378.78;5033518;28;20254;-89
2022/04/19 05:45:47;;;;;;;9.00;5.30;;;;;;;5.27;82.74;94424.44;5015988;28;20784;-89
2022/04/19 05:48:13;;;;;;;7.23;4.40;;;;;;;4.61;82.77;94321.34;5016016;28;20176;-87
2022/04/19 05:50:39;;;;;;;6.23;5.40;;;;;;;4.88;82.81;94368.31;5034025;28;20670;-88
2022/04/19 05:53:05;;;;;;;8.20;5.93;;;;;;;4.98;83.45;94372.41;5033836;28;20547;-88
2022/04/19 05:55:32;;;;;;;8.50;5.53;;;;;;;5.53;83.92;94442.09;5033308;28;20590;-87
2022/04/19 05:57:58;;;;;;;8.07;5.90;;;;;;;5.78;83.55;94450.28;5024700;28;20167;-85
2022/04/19 06:00:24;;;;;;;7.97;5.70;;;;;;;5.91;83.20;94455.59;5023255;28;20172;-85
2022/04/19 06:05:34;;;;;;;7.20;5.47;;;;;;;5.80;83.61;94414.31;5021452;28;20204;-84
2022/04/19 06:08:00;;;;;;;11.63;6.40;;;;;;;6.11;82.47;94450.50;5006550;28;20562;-85
2022/04/19 06:10:26;;;;;;;9.83;6.20;;;;;;;6.17;81.56;94455.75;5019113;28;20955;-86
2022/04/19 06:12:51;;;;;;;7.23;5.73;;;;;;;6.12;80.83;94441.66;5007571;28;20184;-87
2022/04/19 06:15:17;;;;;;;10.20;7.40;;;;;;;6.13;80.29;94459.78;5007290;28;20176;-87
2022/04/19 06:17:43;;;;;;;8.90;6.27;;;;;;;5.66;81.21;94393.38;5006979;28;20163;-88
2022/04/19 06:20:09;;;;;;;9.23;6.10;;;;;;;6.02;80.68;94462.91;5032051;28;20187;-88
2022/04/19 06:22:35;;;;;;;8.93;5.70;;;;;;;5.65;82.20;94396.97;5021299;28;20172;-89
2022/04/19 06:25:01;;;;;;;10.17;6.30;;;;;;;6.12;83.25;94466.00;5025958;28;20197;-87
2022/04/19 06:27:27;;;;;;;11.53;6.50;;;;;;;5.62;83.04;94383.50;5016620;28;20251;-86
2022/04/19 06:29:53;;;;;;;6.20;4.57;;;;;;;6.07;83.22;94447.44;5019813;28;20267;-85
2022/04/19 06:32:22;;;;;;;6.57;4.13;;;;;;;5.98;82.94;94417.25;5021191;28;20168;-87
2022/04/19 06:34:48;;;;;;;3.57;2.77;;;;;;;6.14;82.43;94429.22;5004789;28;20645;-86
2022/04/19 06:37:14;;;;;;;3.87;3.17;;;;;;;6.47;81.87;94455.50;5023959;28;20204;-88
2022/04/19 06:39:39;;;;;;;4.00;2.97;;;;;;;6.52;80.74;94451.28;5018206;28;20204;-86
2022/04/19 06:42:05;;;;;;;5.63;3.17;;;;;;;6.67;80.24;94472.03;5021577;28;20558;-88
2022/04/19 06:44:30;;;;;;;3.63;2.90;;;;;;;6.40;80.37;94411.81;5020709;28;20212;-88
2022/04/19 06:46:56;;;;;;;3.67;2.57;;;;;;;6.52;80.07;94419.09;5020583;28;20187;-90
2022/04/19 06:49:22;;;;;;;5.13;2.70;;;;;;;6.58;79.83;94420.91;5001369;28;20190;-90
2022/04/19 06:51:48;;;;;;;3.23;2.57;;;;;;;6.76;79.94;94434.25;5004691;28;20609;-89
2022/04/19 06:54:15;;;;;;;5.03;3.77;;;;;;;6.68;79.93;94413.50;5021531;28;20172;-87
2022/04/19 06:56:41;;;;;;;4.43;3.60;;;;;;;6.56;79.52;94394.19;5003247;28;20179;-87
2022/04/19 06:59:08;;;;;;;7.60;5.07;;;;;;;6.82;77.35;94447.38;5001362;28;20184;-86
2022/04/19 07:01:34;;;;;;;7.70;5.47;;;;;;;6.73;77.90;94432.03;5022023;28;20674;-87
2022/04/19 07:03:59;;;;;;;5.83;4.50;;;;;;;6.41;78.08;94379.44;5002800;28;20187;-85
2022/04/19 07:06:25;;;;;;;4.10;3.63;;;;;;;6.28;78.91;94362.94;5022340;28;20187;-86
2022/04/19 07:08:50;;;;;;;4.77;3.93;;;;;;;6.58;78.67;94424.34;5020791;28;20219;-87
2022/04/19 07:11:16;;;;;;;7.20;4.93;;;;;;;6.35;78.24;94406.38;5025001;28;20266;-87
2022/04/19 07:13:45;;;;;;;5.00;4.07;;;;;;;6.88;79.41;94489.41;5020298;28;20704;-86
2022/04/19 07:16:11;;;;;;;5.00;3.33;;;;;;;6.46;79.48;94425.94;5022079;28;20247;-91
2022/04/19 07:18:36;;;;;;;7.57;4.83;;;;;;;6.47;79.09;94427.53;5004388;28;20259;-86
2022/04/19 07:26:38;;;;;;;3.80;3.10;;;;;;;6.48;78.82;94457.09;5019953;28;20179;-87
2022/04/19 07:29:11;;;;;;;6.03;3.10;;;;;;;6.54;79.46;94444.06;5007040;28;20171;-86
2022/04/19 07:31:51;;;;;;;5.90;4.13;;;;;;;7.31;80.77;94489.91;5000306;28;20183;-88
2022/04/19 07:34:16;;;;;;;8.30;4.90;;;;;;;7.52;80.02;94463.56;5026236;28;20295;-85
2022/04/19 07:36:42;;;;;;;6.30;4.37;;;;;;;7.86;77.42;94471.19;5009372;28;20320;-88
2022/04/19 07:39:09;;;;;;;3.93;2.87;;;;;;;7.96;73.54;94494.34;5010028;28;20203;-87
2022/04/19 07:41:35;;;;;;;6.47;3.80;;;;;;;7.95;74.85;94500.63;5024639;28;20204;-86
2022/04/19 07:44:01;;;;;;;4.73;3.50;;;;;;;7.49;75.08;94408.97;5022968;28;20246;-87
2022/04/19 07:46:28;;;;;;;5.03;3.40;;;;;;;7.76;74.51;94443.78;5018862;28;20234;-88
2022/04/19 07:48:54;;;;;;;5.03;3.13;;;;;;;7.88;75.21;94448.19;5012914;28;20157;-86
2022/04/19 07:51:20;;;;;;;6.80;4.03;;;;;;;8.41;76.30;94499.72;5012537;28;20164;-85
2022/04/19 07:53:46;;;;;;;3.80;3.13;;;;;;;8.83;76.56;94495.75;5016209;28;20874;-86
2022/04/19 07:56:11;;;;;;;3.53;2.40;;;;;;;8.95;70.65;94484.41;5005027;28;20180;-84
2022/04/19 07:58:37;;;;;;;2.90;1.93;;;;;;;9.14;69.28;94501.06;5023467;28;20262;-84
2022/04/19 08:01:03;;;;;;;3.13;2.37;;;;;;;8.62;69.04;94500.28;5005029;28;20654;-84
2022/04/19 08:03:29;;;;;;;3.50;3.03;;;;;;;8.68;73.33;94496.03;5023032;28;20172;-84
2022/04/19 08:05:54;;;;;;;4.50;2.80;;;;;;;8.85;72.58;94485.84;5006764;28;20270;-85
2022/04/19 08:08:23;;;;;;;2.37;2.13;;;;;;;8.80;71.06;94462.06;5022751;28;20729;-85
2022/04/19 08:10:49;;;;;;;4.70;3.20;;;;;;;8.81;70.57;94443.50;5027268;28;20278;-84
2022/04/19 08:13:15;;;;;;;3.90;3.23;;;;;;;8.98;69.31;94480.56;5006765;28;20259;-84
2022/04/19 08:15:41;;;;;;;3.43;2.50;;;;;;;9.00;68.21;94496.88;5024312;28;20176;-83
2022/04/19 08:18:07;;;;;;;27.27;24.60;;;;;;;8.96;67.17;94503.56;5009659;28;20691;-83
2022/04/19 08:20:33;;;;;;;5.33;4.17;;;;;;;8.86;67.05;94496.16;5022882;28;20267;-85
2022/04/19 08:22:59;;;;;;;6.03;4.53;;;;;;;8.63;69.83;94461.75;5024643;28;20250;-85
2022/04/19 08:25:25;;;;;;;22.50;21.17;;;;;;;9.17;67.97;94486.72;5027884;28;20191;-84
2022/04/19 08:27:52;;;;;;;1999.90;999.90;;;;;;;9.09;65.34;94469.38;5006440;28;20548;-86
2022/04/19 08:30:19;;;;;;;5.00;3.20;;;;;;;9.27;67.50;94432.69;5026906;28;20200;-84
2022/04/19 08:32:45;;;;;;;1999.90;999.90;;;;;;;9.76;62.75;94429.28;5008070;28;20637;-88
2022/04/19 08:35:12;;;;;;;1999.90;999.90;;;;;;;11.02;62.30;94481.34;5006875;28;20264;-83
2022/04/19 08:37:38;;;;;;;713.53;645.03;;;;;;;11.15;58.73;94467.22;5006033;28;20279;-86
2022/04/19 08:40:09;;;;;;;383.27;353.70;;;;;;;11.00;59.58;94419.38;5005099;28;20676;-85
2022/04/19 08:42:37;;;;;;;52.70;41.33;;;;;;;10.54;58.75;94449.75;5009968;28;20306;-87
2022/04/19 08:45:04;;;;;;;62.40;57.87;;;;;;;10.59;60.89;94481.47;5008974;28;20188;-87
2022/04/19 08:47:36;;;;;;;1999.90;999.90;;;;;;;10.91;65.00;94447.84;5021688;28;20180;-86
2022/04/19 08:50:08;;;;;;;53.70;49.10;;;;;;;11.56;60.11;94442.69;5022727;28;20177;-84
2022/04/19 08:52:34;;;;;;;97.47;90.23;;;;;;;11.86;57.06;94426.81;5030738;28;20649;-86
2022/04/19 08:57:44;;;;;;;635.53;597.83;;;;;;;10.09;56.96;94484.19;5022204;28;20230;-83
2022/04/19 09:00:11;;;;;;;1999.90;999.90;;;;;;;9.23;62.12;94480.63;5022886;28;20634;-85
2022/04/19 09:02:37;;;;;;;377.63;351.90;;;;;;;8.43;63.78;94469.69;5004306;28;20549;-85
2022/04/19 09:05:14;;;;;;;402.17;378.50;;;;;;;8.50;64.76;94480.94;5028029;28;20210;-85
2022/04/19 09:07:41;;;;;;;1999.90;999.90;;;;;;;8.80;65.72;94475.19;5004712;28;20255;-83
2022/04/19 09:10:11;;;;;;;1999.90;999.90;;;;;;;9.28;65.80;94467.63;5027451;28;20301;-83
2022/04/19 09:12:37;;;;;;;1053.30;943.07;;;;;;;9.51;63.42;94467.91;5020871;28;20179;-88
2022/04/19 09:15:08;;;;;;;1199.77;999.90;;;;;;;9.53;62.61;94463.22;5006106;28;20160;-86
2022/04/19 09:17:35;;;;;;;1999.90;999.90;;;;;;;9.68;63.61;94473.44;5018271;28;20255;-85
2022/04/19 09:20:19;;;;;;;234.17;217.27;;;;;;;9.67;61.17;94466.56;5021570;28;20176;-86
2022/04/19 09:22:58;;;;;;;308.00;288.60;;;;;;;9.89;61.97;94470.41;5023033;28;20573;-86
2022/04/19 09:25:26;;;;;;;202.70;189.13;;;;;;;9.83;61.68;94414.25;5019200;28;20240;-86
2022/04/19 09:27:56;;;;;;;668.67;625.47;;;;;;;10.13;58.65;94440.63;5021043;28;20173;-85
2022/04/19 09:30:24;;;;;;;1999.90;999.90;;;;;;;9.67;63.16;94351.75;5024106;28;20227;-86
2022/04/19 09:33:02;;;;;;;719.63;651.17;;;;;;;10.55;62.69;94461.91;5021898;28;20178;-80
2022/04/19 09:35:36;;;;;;;247.97;234.70;;;;;;;10.48;59.56;94421.66;5025304;28;20179;-86
2022/04/19 09:38:02;;;;;;;562.57;528.70;;;;;;;10.90;59.96;94464.69;5017774;28;20682;-87
2022/04/19 09:40:29;;;;;;;802.13;749.33;;;;;;;10.83;59.81;94421.84;5004414;28;20195;-88
2022/04/19 09:42:55;;;;;;;923.20;862.80;;;;;;;11.13;59.81;94424.47;5002636;28;20207;-86
2022/04/19 09:45:23;;;;;;;931.13;870.77;;;;;;;11.14;60.70;94394.47;5023258;28;20685;-86
2022/04/19 09:47:50;;;;;;;1999.90;999.90;;;;;;;11.71;58.89;94454.41;5006212;28;20183;-86
2022/04/19 09:50:15;;;;;;;1999.90;999.90;;;;;;;11.55;56.40;94433.97;5018230;28;20165;-86
2022/04/19 09:52:48;;;;;;;1999.90;999.90;;;;;;;11.05;59.41;94409.00;5004318;28;20575;-86
2022/04/19 09:55:15;;;;;;;1999.90;999.90;;;;;;;10.91;60.17;94403.09;5002675;28;20172;-87
2022/04/19 09:57:41;;;;;;;1999.90;999.90;;;;;;;11.10;61.83;94409.91;5002124;28;20339;-88
2022/04/19 10:00:09;;;;;;;587.27;542.97;;;;;;;11.49;59.06;94434.88;5023753;28;20318;-85
2022/04/19 10:08:13;;;;;;;1999.90;999.90;;;;;;;11.61;53.87;94430.41;5029727;28;20175;-84
2022/04/19 10:10:40;;;;;;;1999.90;999.90;;;;;;;11.15;54.45;94427.69;5034178;28;20167;-86
2022/04/19 10:13:06;;;;;;;1999.90;999.90;;;;;;;10.83;53.61;94417.38;5015241;28;20175;-85
2022/04/19 10:15:36;;;;;;;1999.90;999.90;;;;;;;10.19;55.41;94433.75;5014667;28;20176;-84
2022/04/19 10:18:06;;;;;;;1999.90;999.90;;;;;;;10.37;57.65;94428.50;5041696;28;20635;-83
2022/04/19 10:20:36;;;;;;;1999.90;999.90;;;;;;;10.54;50.96;94445.31;5032809;28;20175;-85
2022/04/19 10:23:04;;;;;;;1999.90;999.90;;;;;;;10.46;51.32;94418.47;5032364;28;20164;-85
2022/04/19 10:25:48;;;;;;;1999.90;999.90;;;;;;;10.64;49.08;94434.22;5012698;28;20223;-85
2022/04/19 10:28:35;;;;;;;1999.90;999.90;;;;;;;10.68;48.40;94438.03;5001736;28;20179;-85
2022/04/19 10:31:03;;;;;;;1999.90;999.90;;;;;;;10.63;53.02;94398.44;5022071;28;20181;-84
2022/04/19 10:33:47;;;;;;;1999.90;999.90;;;;;;;10.76;50.64;94419.31;5022795;28;20186;-85
2022/04/19 10:36:20;;;;;;;1999.90;999.90;;;;;;;10.46;48.89;94384.28;5030938;28;20179;-85
2022/04/19 10:39:07;;;;;;;1999.90;999.90;;;;;;;10.59;47.50;94428.84;5032698;28;20160;-85
2022/04/19 10:41:58;;;;;;;1999.90;999.90;;;;;;;10.42;48.97;94427.81;5032566;28;20229;-85
2022/04/19 10:44:36;;;;;;;1999.90;999.90;;;;;;;10.37;50.09;94436.38;5026847;28;20265;-85
2022/04/19 10:47:17;;;;;;;1999.90;999.90;;;;;;;10.03;50.24;94429.03;5016102;28;20184;-85
2022/04/19 10:49:47;;;;;;;1999.90;999.90;;;;;;;9.82;51.02;94433.66;5012873;28;20637;-85
2022/04/19 10:55:53;;;;;;;1999.90;999.90;;;;;;;9.83;53.48;94381.91;5012518;28;20176;-86
2022/04/19 10:58:20;;;;;;;1999.90;999.90;;;;;;;10.44;52.67;94415.25;4994794;28;20655;-86
2022/04/19 11:00:54;;;;;;;1999.90;999.90;;;;;;;10.32;49.48;94430.16;5012420;28;20160;-85
2022/04/19 11:03:39;;;;;;;1999.90;999.90;;;;;;;10.48;51.31;94419.03;4994734;28;20172;-85
2022/04/19 11:06:31;;;;;;;1999.90;999.90;;;;;;;10.27;53.95;94419.50;5012529;28;20650;-85
2022/04/19 11:09:23;;;;;;;1999.90;999.90;;;;;;;10.37;52.98;94417.16;5012154;28;20224;-86
2022/04/19 11:12:07;;;;;;;1999.90;999.90;;;;;;;10.08;50.79;94423.91;5013641;28;20668;-85
2022/04/19 11:14:42;;;;;;;1999.90;999.90;;;;;;;9.83;52.93;94416.88;5009530;28;20238;-85
2022/04/19 11:17:29;;;;;;;1999.90;999.90;;;;;;;9.81;49.00;94420.75;5022711;28;20170;-85
2022/04/19 11:20:16;;;;;;;1999.90;999.90;;;;;;;9.72;47.18;94427.28;5006958;28;20175;-85
2022/04/19 11:22:50;;;;;;;1999.90;999.90;;;;;;;9.79;50.89;94422.78;5003139;28;20199;-85
2022/04/19 11:25:34;;;;;;;1999.90;999.90;;;;;;;9.70;50.85;94387.28;5031949;28;20278;-85
2022/04/19 11:28:00;;;;;;;1999.90;999.90;;;;;;;10.19;51.37;94410.88;5030267;28;20172;-86
2022/04/19 11:30:26;;;;;;;1999.90;999.90;;;;;;;10.51;49.90;94414.16;4998831;28;20171;-86
2022/04/19 11:33:08;;;;;;;1999.90;999.90;;;;;;;10.77;49.86;94409.56;5020666;28;20187;-86
2022/04/19 11:35:34;;;;;;;1999.90;999.90;;;;;;;10.90;50.33;94391.75;5007179;28;20599;-87
2022/04/19 11:38:05;;;;;;;1999.90;999.90;;;;;;;10.80;42.46;94403.88;5026908;28;20179;-83
2022/04/19 11:46:44;;;;;;;1999.90;999.90;;;;;;;10.38;46.78;94372.19;5024214;28;20188;-85
2022/04/19 11:49:16;;;;;;;1999.90;999.90;;;;;;;10.42;48.08;94418.09;5027642;28;20190;-85
2022/04/19 11:51:49;;;;;;;1999.90;999.90;;;;;;;9.99;45.65;94401.56;5033926;28;20262;-84